Ram Vi — WRA8604 — position and weather

sailwx.info

Track history (hours):
 
Tides and Currents Weather Stations Pressure Air Temp Water Temp Dewpoint Dewpoint Depression Visibility Wind Speed Wind Dir Waves Ship Positions

Ram Vi

Owner: ARIES MARINE CORP, LAFAYETTE, LA. More information available from US FCC via Universal Licensing System and Coast Guard Vessel Documentation Center.

Last reported at 2017-Apr-28 04:00 UTC. Time now 2017-Apr-30 03:22 UTC.
Position N 29°57' W 091°50'.

MMSI: 367035040.

Date/timePositionNaut miles runAvg speedWind from/ knotsBaromVisibWave heightAir tempDewpointWater temp
2017-Apr-28 04:00N 29°57' W 091°50'0 0.0
2017-Apr-28 03:30N 29°57' W 091°50'0 0.0
2017-Apr-28 02:54N 29°57' W 091°50'0 0.0
2017-Apr-28 02:24N 29°57' W 091°50'0 0.0
2017-Apr-28 01:38N 29°57' W 091°50'0 0.0
2017-Apr-28 01:27N 29°57' W 091°50'0 0.0
2017-Apr-28 00:50N 29°57' W 091°50'0 0.0
2017-Apr-27 23:50N 29°57' W 091°50'0 0.0
2017-Apr-27 13:39N 29°57' W 091°50'0 0.0
2017-Apr-27 13:30N 29°57' W 091°50'0 0.0
2017-Apr-27 13:00N 29°57' W 091°50'0 0.0
2017-Apr-27 11:12N 29°57' W 091°50'0 0.0
2017-Apr-27 09:12N 29°57' W 091°50'0 0.0
2017-Apr-27 09:00N 29°57' W 091°50'0 0.0
2017-Apr-27 06:51N 29°57' W 091°50'0 0.0
2017-Apr-27 06:24N 29°57' W 091°50'0 0.0
2017-Apr-27 05:42N 29°57' W 091°50'0 0.0
2017-Apr-27 05:21N 29°57' W 091°50'0 0.0
2017-Apr-27 04:48N 29°57' W 091°50'0 0.0
2017-Apr-27 04:21N 29°57' W 091°50'0 0.0
2017-Apr-26 22:39N 29°57' W 091°50'0 0.0
2017-Apr-26 20:45N 29°57' W 091°50'0 0.0
2017-Apr-25 17:11N 29°57' W 091°50'0 0.0
2017-Apr-25 15:07N 29°57' W 091°50'0 0.0
2017-Apr-25 13:04N 29°57' W 091°50'0 0.1
2017-Apr-25 12:58N 29°57' W 091°50'0 0.0
2017-Apr-25 12:28N 29°57' W 091°50'0 0.0
2017-Apr-25 09:46N 29°57' W 091°50'0 0.0
2017-Apr-25 08:25N 29°57' W 091°50'0 0.0
2017-Apr-25 07:52N 29°57' W 091°50'0 0.0
2017-Apr-25 07:22N 29°57' W 091°50'0 0.0
2017-Apr-25 06:58N 29°57' W 091°50'0 0.0
2017-Apr-25 06:28N 29°57' W 091°50'0 0.0
2017-Apr-25 05:58N 29°57' W 091°50'0 0.0
2017-Apr-25 05:25N 29°57' W 091°50'0 0.0
2017-Apr-25 04:55N 29°57' W 091°50'0 0.0
2017-Apr-25 04:28N 29°57' W 091°50'0 0.0
2017-Apr-25 03:58N 29°57' W 091°50'0 0.0
2017-Apr-25 03:28N 29°57' W 091°50'0 0.0
2017-Apr-25 02:58N 29°57' W 091°50'0 0.0
2017-Apr-25 02:28N 29°57' W 091°50'0 0.0
2017-Apr-25 01:58N 29°57' W 091°50'0 0.0
2017-Apr-24 12:11N 29°56' W 091°51'0 0.0
2017-Apr-24 11:59N 29°56' W 091°51'0 0.0
2017-Apr-22 18:43N 29°56' W 091°51'5 4.8
2017-Apr-22 17:36N 29°51' W 091°51'1 6.6
2017-Apr-22 17:26N 29°51' W 091°53'3 6.3
2017-Apr-22 17:01N 29°51' W 091°56'3 6.1
2017-Apr-22 16:30N 29°50' W 091°59'3 6.1
2017-Apr-22 16:01N 29°49' W 092°02'3 5.8
2017-Apr-22 15:30N 29°48' W 092°06'3 5.8
2017-Apr-22 15:01N 29°47' W 092°09'3 5.8
2017-Apr-22 14:31N 29°46' W 092°12'6 6.0
2017-Apr-22 13:30N 29°40' W 092°15'3 6.1
2017-Apr-22 13:00N 29°38' W 092°16'3 5.7
2017-Apr-22 12:30N 29°35' W 092°18'2 3.0
2017-Apr-22 11:59N 29°34' W 092°18'0 0.0
2017-Apr-22 11:29N 29°34' W 092°18'0 0.0
2017-Apr-22 10:59N 29°34' W 092°18'0 0.0
2017-Apr-22 10:29N 29°34' W 092°18'0 0.0
2017-Apr-22 09:56N 29°34' W 092°18'0 0.0
2017-Apr-22 09:29N 29°34' W 092°18'0 0.0
2017-Apr-22 08:59N 29°34' W 092°18'0 0.0
2017-Apr-22 08:29N 29°34' W 092°18'0 0.0
2017-Apr-22 07:59N 29°34' W 092°18'0 0.0
2017-Apr-22 07:29N 29°34' W 092°18'0 0.0
2017-Apr-22 06:59N 29°34' W 092°18'0 0.0
2017-Apr-22 06:29N 29°34' W 092°18'0 0.0
2017-Apr-22 05:59N 29°34' W 092°18'0 0.0
2017-Apr-22 05:29N 29°34' W 092°18'0 0.0
2017-Apr-22 04:59N 29°34' W 092°18'0 0.0
2017-Apr-22 04:29N 29°34' W 092°18'0 0.0
2017-Apr-22 03:59N 29°34' W 092°18'0 0.0
2017-Apr-22 03:29N 29°34' W 092°18'0 0.0
2017-Apr-22 02:59N 29°34' W 092°18'0 0.0
2017-Apr-22 02:29N 29°34' W 092°18'0 0.0
2017-Apr-22 01:56N 29°34' W 092°18'0 0.0
2017-Apr-22 01:29N 29°34' W 092°18'0 0.7
2017-Apr-22 00:57N 29°33' W 092°18'1 3.2
2017-Apr-22 00:30N 29°32' W 092°19'3 5.3
2017-Apr-21 23:59N 29°29' W 092°19'  
Track history (hours):
 
Tides and Currents Weather Stations Pressure Air Temp Water Temp Dewpoint Dewpoint Depression Visibility Wind Speed Wind Dir Waves Ship Positions

Ram Vi

Owner: ARIES MARINE CORP, LAFAYETTE, LA. More information available from US FCC via Universal Licensing System and Coast Guard Vessel Documentation Center.

Last reported at 2017-Apr-28 04:00 UTC. Time now 2017-Apr-30 03:22 UTC.
Position N 29°57' W 091°50'.

MMSI: 367035040.

Date/timePositionNaut miles runAvg speedWind from/ knotsBaromVisibWave heightAir tempDewpointWater temp
2017-Apr-28 04:00N 29°57' W 091°50'0 0.0
2017-Apr-28 03:30N 29°57' W 091°50'0 0.0
2017-Apr-28 02:54N 29°57' W 091°50'0 0.0
2017-Apr-28 02:24N 29°57' W 091°50'0 0.0
2017-Apr-28 01:38N 29°57' W 091°50'0 0.0
2017-Apr-28 01:27N 29°57' W 091°50'0 0.0
2017-Apr-28 00:50N 29°57' W 091°50'0 0.0
2017-Apr-27 23:50N 29°57' W 091°50'0 0.0
2017-Apr-27 13:39N 29°57' W 091°50'0 0.0
2017-Apr-27 13:30N 29°57' W 091°50'0 0.0
2017-Apr-27 13:00N 29°57' W 091°50'0 0.0
2017-Apr-27 11:12N 29°57' W 091°50'0 0.0
2017-Apr-27 09:12N 29°57' W 091°50'0 0.0
2017-Apr-27 09:00N 29°57' W 091°50'0 0.0
2017-Apr-27 06:51N 29°57' W 091°50'0 0.0
2017-Apr-27 06:24N 29°57' W 091°50'0 0.0
2017-Apr-27 05:42N 29°57' W 091°50'0 0.0
2017-Apr-27 05:21N 29°57' W 091°50'0 0.0
2017-Apr-27 04:48N 29°57' W 091°50'0 0.0
2017-Apr-27 04:21N 29°57' W 091°50'0 0.0
2017-Apr-26 22:39N 29°57' W 091°50'0 0.0
2017-Apr-26 20:45N 29°57' W 091°50'0 0.0
2017-Apr-25 17:11N 29°57' W 091°50'0 0.0
2017-Apr-25 15:07N 29°57' W 091°50'0 0.0
2017-Apr-25 13:04N 29°57' W 091°50'0 0.1
2017-Apr-25 12:58N 29°57' W 091°50'0 0.0
2017-Apr-25 12:28N 29°57' W 091°50'0 0.0
2017-Apr-25 09:46N 29°57' W 091°50'0 0.0
2017-Apr-25 08:25N 29°57' W 091°50'0 0.0
2017-Apr-25 07:52N 29°57' W 091°50'0 0.0
2017-Apr-25 07:22N 29°57' W 091°50'0 0.0
2017-Apr-25 06:58N 29°57' W 091°50'0 0.0
2017-Apr-25 06:28N 29°57' W 091°50'0 0.0
2017-Apr-25 05:58N 29°57' W 091°50'0 0.0
2017-Apr-25 05:25N 29°57' W 091°50'0 0.0
2017-Apr-25 04:55N 29°57' W 091°50'0 0.0
2017-Apr-25 04:28N 29°57' W 091°50'0 0.0
2017-Apr-25 03:58N 29°57' W 091°50'0 0.0
2017-Apr-25 03:28N 29°57' W 091°50'0 0.0
2017-Apr-25 02:58N 29°57' W 091°50'0 0.0
2017-Apr-25 02:28N 29°57' W 091°50'0 0.0
2017-Apr-25 01:58N 29°57' W 091°50'0 0.0
2017-Apr-24 12:11N 29°56' W 091°51'0 0.0
2017-Apr-24 11:59N 29°56' W 091°51'0 0.0
2017-Apr-22 18:43N 29°56' W 091°51'5 4.8
2017-Apr-22 17:36N 29°51' W 091°51'1 6.6
2017-Apr-22 17:26N 29°51' W 091°53'3 6.3
2017-Apr-22 17:01N 29°51' W 091°56'3 6.1
2017-Apr-22 16:30N 29°50' W 091°59'3 6.1
2017-Apr-22 16:01N 29°49' W 092°02'3 5.8
2017-Apr-22 15:30N 29°48' W 092°06'3 5.8
2017-Apr-22 15:01N 29°47' W 092°09'3 5.8
2017-Apr-22 14:31N 29°46' W 092°12'6 6.0
2017-Apr-22 13:30N 29°40' W 092°15'3 6.1
2017-Apr-22 13:00N 29°38' W 092°16'3 5.7
2017-Apr-22 12:30N 29°35' W 092°18'2 3.0
2017-Apr-22 11:59N 29°34' W 092°18'0 0.0
2017-Apr-22 11:29N 29°34' W 092°18'0 0.0
2017-Apr-22 10:59N 29°34' W 092°18'0 0.0
2017-Apr-22 10:29N 29°34' W 092°18'0 0.0
2017-Apr-22 09:56N 29°34' W 092°18'0 0.0
2017-Apr-22 09:29N 29°34' W 092°18'0 0.0
2017-Apr-22 08:59N 29°34' W 092°18'0 0.0
2017-Apr-22 08:29N 29°34' W 092°18'0 0.0
2017-Apr-22 07:59N 29°34' W 092°18'0 0.0
2017-Apr-22 07:29N 29°34' W 092°18'0 0.0
2017-Apr-22 06:59N 29°34' W 092°18'0 0.0
2017-Apr-22 06:29N 29°34' W 092°18'0 0.0
2017-Apr-22 05:59N 29°34' W 092°18'0 0.0
2017-Apr-22 05:29N 29°34' W 092°18'0 0.0
2017-Apr-22 04:59N 29°34' W 092°18'0 0.0
2017-Apr-22 04:29N 29°34' W 092°18'0 0.0
2017-Apr-22 03:59N 29°34' W 092°18'0 0.0
2017-Apr-22 03:29N 29°34' W 092°18'0 0.0
2017-Apr-22 02:59N 29°34' W 092°18'0 0.0
2017-Apr-22 02:29N 29°34' W 092°18'0 0.0
2017-Apr-22 01:56N 29°34' W 092°18'0 0.0
2017-Apr-22 01:29N 29°34' W 092°18'0 0.7
2017-Apr-22 00:57N 29°33' W 092°18'1 3.2
2017-Apr-22 00:30N 29°32' W 092°19'3 5.3
2017-Apr-21 23:59N 29°29' W 092°19'  

Dump ship's entire track history